VOI44 MMMX-MMQT
Flight info
| Callsign | VOI44 |
|---|---|
| Flight time | N/A |
| Altitude | 22000 |
| Route | SEBON3A SEBON UT144 QET |
| Aircraft | A320/M-SDE3FGHIRWY/LB1 |
Departure
| Time | N/A |
|---|---|
| Airport | Mexico City Benito Juárez International Airport (MMMX) |
Arrival
| Time | 2026-05-07 01:19 |
|---|---|
| Airport | Querétaro Intercontinental Airport (MMQT) |
| Time | Latitude | Longitude | Altitude | Speed | Heading |
|---|---|---|---|---|---|
| 2026-05-07 00:55 | 19.71706 | -99.94295 | 30257 ft | 484 kts | 335° |
| 2026-05-07 00:55 | 19.74817 | -99.95682 | 30001 ft | 485 kts | 336° |
| 2026-05-07 00:55 | 19.77931 | -99.97065 | 28894 ft | 489 kts | 336° |
| 2026-05-07 00:55 | 19.81094 | -99.98480 | 27634 ft | 496 kts | 335° |
| 2026-05-07 00:56 | 19.84292 | -99.99924 | 26500 ft | 501 kts | 335° |
| 2026-05-07 00:56 | 19.87473 | -100.01371 | 25823 ft | 495 kts | 335° |
| 2026-05-07 00:56 | 19.90628 | -100.02823 | 24990 ft | 492 kts | 333° |
| 2026-05-07 00:56 | 19.93550 | -100.04653 | 24219 ft | 485 kts | 324° |
| 2026-05-07 00:57 | 19.96338 | -100.06648 | 23434 ft | 481 kts | 324° |
| 2026-05-07 00:57 | 19.99090 | -100.08647 | 22533 ft | 477 kts | 323° |
| 2026-05-07 00:57 | 20.01817 | -100.10634 | 21665 ft | 474 kts | 324° |
| 2026-05-07 00:57 | 20.04528 | -100.12611 | 20818 ft | 470 kts | 324° |
| 2026-05-07 00:58 | 20.07206 | -100.14584 | 19967 ft | 467 kts | 324° |
| 2026-05-07 00:58 | 20.09859 | -100.16555 | 19163 ft | 463 kts | 324° |
| 2026-05-07 00:58 | 20.12483 | -100.18520 | 18388 ft | 459 kts | 324° |
| 2026-05-07 00:58 | 20.15034 | -100.20458 | 17518 ft | 454 kts | 324° |
| 2026-05-07 00:59 | 20.20272 | -100.24022 | 16020 ft | 439 kts | 329° |
| 2026-05-07 00:59 | 20.22911 | -100.25619 | 15312 ft | 433 kts | 329° |
| 2026-05-07 00:59 | 20.25676 | -100.26801 | 14793 ft | 426 kts | 343° |
| 2026-05-07 01:00 | 20.28517 | -100.27538 | 14451 ft | 413 kts | 345° |
| 2026-05-07 01:00 | 20.31271 | -100.28248 | 14067 ft | 401 kts | 342° |
| 2026-05-07 01:00 | 20.33859 | -100.29250 | 13727 ft | 393 kts | 335° |
| 2026-05-07 01:00 | 20.36356 | -100.30414 | 13222 ft | 390 kts | 333° |
| 2026-05-07 01:01 | 20.38837 | -100.31570 | 12668 ft | 387 kts | 334° |
| 2026-05-07 01:01 | 20.41290 | -100.32725 | 12064 ft | 385 kts | 333° |
| 2026-05-07 01:01 | 20.43733 | -100.33874 | 11465 ft | 382 kts | 334° |
| 2026-05-07 01:01 | 20.46150 | -100.35014 | 10882 ft | 378 kts | 334° |
| 2026-05-07 01:02 | 20.48551 | -100.36154 | 10314 ft | 377 kts | 333° |
| 2026-05-07 01:02 | 20.50933 | -100.37296 | 9907 ft | 371 kts | 335° |
| 2026-05-07 01:02 | 20.53207 | -100.38491 | 9768 ft | 357 kts | 334° |
| 2026-05-07 01:02 | 20.55381 | -100.39640 | 9778 ft | 340 kts | 336° |
| 2026-05-07 01:03 | 20.57589 | -100.40342 | 9618 ft | 327 kts | 356° |
| 2026-05-07 01:03 | 20.59794 | -100.40262 | 9531 ft | 310 kts | 14° |
| 2026-05-07 01:03 | 20.61747 | -100.39521 | 9410 ft | 295 kts | 30° |
| 2026-05-07 01:03 | 20.63344 | -100.38242 | 9284 ft | 282 kts | 50° |
| 2026-05-07 01:04 | 20.64306 | -100.36489 | 9144 ft | 269 kts | 76° |
| 2026-05-07 01:04 | 20.64511 | -100.34548 | 8780 ft | 262 kts | 97° |
| 2026-05-07 01:04 | 20.64177 | -100.32700 | 8592 ft | 245 kts | 102° |
| 2026-05-07 01:04 | 20.63857 | -100.30979 | 8688 ft | 229 kts | 101° |
| 2026-05-07 01:05 | 20.63564 | -100.29374 | 8512 ft | 209 kts | 101° |
| 2026-05-07 01:05 | 20.63309 | -100.27891 | 8078 ft | 199 kts | 100° |
| 2026-05-07 01:05 | 20.63110 | -100.26443 | 7610 ft | 195 kts | 97° |
| 2026-05-07 01:05 | 20.62891 | -100.25111 | 7503 ft | 176 kts | 92° |
| 2026-05-07 01:06 | 20.62703 | -100.23842 | 7285 ft | 171 kts | 98° |
| 2026-05-07 01:06 | 20.62463 | -100.22574 | 7024 ft | 178 kts | 91° |
| 2026-05-07 01:06 | 20.62238 | -100.21264 | 6772 ft | 180 kts | 96° |
| 2026-05-07 01:06 | 20.62005 | -100.19995 | 6494 ft | 165 kts | 100° |
| 2026-05-07 01:07 | 20.61789 | -100.18793 | 6842 ft | 171 kts | 96° |
| 2026-05-07 01:07 | 20.61553 | -100.17540 | 7337 ft | 181 kts | 101° |
| 2026-05-07 01:07 | 20.61334 | -100.16119 | 7577 ft | 206 kts | 98° |
| 2026-05-07 01:07 | 20.61328 | -100.14573 | 8154 ft | 208 kts | 87° |
| 2026-05-07 01:08 | 20.61414 | -100.13039 | 8941 ft | 206 kts | 89° |
| 2026-05-07 01:08 | 20.61382 | -100.11516 | 9687 ft | 206 kts | 95° |
| 2026-05-07 01:08 | 20.61116 | -100.09943 | 10002 ft | 230 kts | 111° |
| 2026-05-07 01:08 | 20.60140 | -100.08465 | 10042 ft | 263 kts | 139° |
| 2026-05-07 01:09 | 20.58497 | -100.07595 | 10031 ft | 260 kts | 169° |
| 2026-05-07 01:09 | 20.56696 | -100.07698 | 10039 ft | 264 kts | 198° |
| 2026-05-07 01:09 | 20.55153 | -100.08754 | 10040 ft | 270 kts | 227° |
| 2026-05-07 01:09 | 20.54296 | -100.10518 | 10045 ft | 268 kts | 259° |
| 2026-05-07 01:10 | 20.54238 | -100.11819 | 10058 ft | 265 kts | 279° |
| 2026-05-07 01:10 | 20.54894 | -100.13604 | 10061 ft | 259 kts | 309° |
| 2026-05-07 01:10 | 20.56216 | -100.14895 | 10070 ft | 259 kts | 324° |
| 2026-05-07 01:10 | 20.57655 | -100.16055 | 10066 ft | 261 kts | 326° |
| 2026-05-07 01:11 | 20.59103 | -100.17222 | 10060 ft | 259 kts | 324° |
| 2026-05-07 01:11 | 20.60543 | -100.18385 | 10061 ft | 261 kts | 324° |
| 2026-05-07 01:11 | 20.61833 | -100.19739 | 10062 ft | 262 kts | 306° |
| 2026-05-07 01:11 | 20.62710 | -100.21436 | 9975 ft | 263 kts | 294° |
| 2026-05-07 01:12 | 20.63509 | -100.23204 | 9918 ft | 265 kts | 295° |
| 2026-05-07 01:12 | 20.64321 | -100.24978 | 9859 ft | 265 kts | 296° |
| 2026-05-07 01:12 | 20.65129 | -100.26739 | 9798 ft | 263 kts | 296° |
| 2026-05-07 01:12 | 20.65937 | -100.28492 | 9729 ft | 265 kts | 296° |
| 2026-05-07 01:13 | 20.66754 | -100.30268 | 9652 ft | 266 kts | 295° |
| 2026-05-07 01:13 | 20.67567 | -100.32040 | 9308 ft | 265 kts | 295° |
| 2026-05-07 01:13 | 20.68372 | -100.33802 | 9238 ft | 264 kts | 296° |
| 2026-05-07 01:13 | 20.69176 | -100.35562 | 9190 ft | 264 kts | 296° |
| 2026-05-07 01:14 | 20.69929 | -100.37352 | 9122 ft | 265 kts | 284° |
| 2026-05-07 01:14 | 20.69894 | -100.39279 | 9067 ft | 263 kts | 247° |
| 2026-05-07 01:14 | 20.68837 | -100.40781 | 9018 ft | 252 kts | 210° |
| 2026-05-07 01:14 | 20.67214 | -100.41272 | 8949 ft | 244 kts | 171° |
| 2026-05-07 01:15 | 20.65718 | -100.40574 | 9025 ft | 238 kts | 133° |
| 2026-05-07 01:15 | 20.64978 | -100.39056 | 9038 ft | 225 kts | 98° |
| 2026-05-07 01:15 | 20.64932 | -100.37467 | 9039 ft | 211 kts | 94° |
| 2026-05-07 01:15 | 20.64784 | -100.35899 | 8947 ft | 211 kts | 98° |
| 2026-05-07 01:16 | 20.64543 | -100.34414 | 8668 ft | 203 kts | 101° |
| 2026-05-07 01:16 | 20.64270 | -100.32942 | 8415 ft | 194 kts | 102° |
| 2026-05-07 01:16 | 20.64014 | -100.31590 | 8169 ft | 183 kts | 101° |
| 2026-05-07 01:16 | 20.63766 | -100.30283 | 8234 ft | 178 kts | 101° |
| 2026-05-07 01:17 | 20.63567 | -100.28997 | 8013 ft | 176 kts | 98° |
| 2026-05-07 01:17 | 20.63391 | -100.27722 | 7795 ft | 172 kts | 98° |
| 2026-05-07 01:17 | 20.63197 | -100.26469 | 7562 ft | 167 kts | 99° |
| 2026-05-07 01:17 | 20.62954 | -100.25238 | 7396 ft | 173 kts | 100° |
| 2026-05-07 01:18 | 20.62729 | -100.23984 | 7345 ft | 172 kts | 99° |
| 2026-05-07 01:18 | 20.62499 | -100.22721 | 7140 ft | 174 kts | 99° |
| 2026-05-07 01:18 | 20.62273 | -100.21427 | 6816 ft | 177 kts | 97° |
| 2026-05-07 01:18 | 20.62036 | -100.20176 | 6551 ft | 170 kts | 98° |
| 2026-05-07 01:19 | 20.61846 | -100.19148 | 6518 ft | 95 kts | 101° |
| 2026-05-07 01:19 | 20.61745 | -100.18585 | 6524 ft | 39 kts | 98° |
| 2026-05-07 01:19 | 20.61805 | -100.18473 | 6529 ft | 5 kts | 54° |
| 2026-05-07 01:19 | 20.61813 | -100.18460 | 6530 ft | 5 kts | 57° |
| 2026-05-07 01:20 | 20.61883 | -100.18371 | 6537 ft | 19 kts | 26° |
| 2026-05-07 01:20 | 20.62003 | -100.18341 | 6540 ft | 17 kts | 357° |
| 2026-05-07 01:20 | 20.62048 | -100.18447 | 6540 ft | 17 kts | 282° |
| 2026-05-07 01:20 | 20.62071 | -100.18576 | 6540 ft | 18 kts | 281° |
| 2026-05-07 01:21 | 20.62097 | -100.18713 | 6540 ft | 18 kts | 281° |
| 2026-05-07 01:21 | 20.62134 | -100.18779 | 6541 ft | 8 kts | 12° |
| 2026-05-07 01:21 | 20.62193 | -100.18771 | 6542 ft | 9 kts | 11° |
| 2026-05-07 01:21 | 20.62200 | -100.18769 | 6542 ft | 0 kts | 11° |